Time;durP1;ratioP1;P1;durP2;ratioP2;P2;SDS_P1;SDS_P2;PMS_P1;PMS_P2;Temp;Humidity;BMP_temperature;BMP_pressure;BME280_temperature;BME280_humidity;BME280_pressure;Samples;Min_cycle;Max_cycle;Signal;HPM_P1;HPM_P2
2023/03/12 00:02:07;;;;;;;2.28;2.08;;;;;;;4.86;62.00;94154.72;4976078;28;20311;-68
2023/03/12 00:04:35;;;;;;;4.72;2.50;;;;;;;4.79;62.29;94169.97;4977319;28;20236;-67
2023/03/12 00:07:02;;;;;;;4.88;2.47;;;;;;;4.69;63.50;94166.03;4975732;28;20213;-67
2023/03/12 00:09:28;;;;;;;6.90;2.63;;;;;;;4.73;63.60;94174.31;4977025;28;20310;-67
2023/03/12 00:11:55;;;;;;;6.53;2.38;;;;;;;4.70;62.74;94185.28;4975619;28;20302;-67
2023/03/12 00:14:23;;;;;;;8.40;2.50;;;;;;;4.59;62.85;94193.97;4974006;28;20324;-66
2023/03/12 00:16:50;;;;;;;3.47;3.17;;;;;;;4.59;62.02;94196.50;4971620;28;21984;-67
2023/03/12 00:19:16;;;;;;;4.78;3.00;;;;;;;4.52;62.50;94194.97;4975540;28;20299;-67
2023/03/12 00:21:43;;;;;;;9.60;2.88;;;;;;;4.47;62.70;94209.34;4974414;28;20329;-66
2023/03/12 00:24:09;;;;;;;3.20;2.95;;;;;;;4.43;63.08;94216.16;4976606;28;20338;-68
2023/03/12 00:26:36;;;;;;;7.60;3.22;;;;;;;4.42;62.98;94222.06;4975109;28;20331;-66
2023/03/12 00:29:03;;;;;;;3.45;2.80;;;;;;;4.34;63.58;94223.91;4978772;28;20304;-67
2023/03/12 00:31:32;;;;;;;2.35;2.15;;;;;;;4.46;63.53;94218.59;4974487;28;20786;-66
2023/03/12 00:34:01;;;;;;;3.33;3.05;;;;;;;4.32;63.50;94221.44;4974874;28;20300;-67
2023/03/12 00:36:30;;;;;;;2.85;2.65;;;;;;;4.41;62.69;94217.91;4975181;28;20296;-67
2023/03/12 00:38:58;;;;;;;5.00;2.88;;;;;;;4.45;62.84;94222.00;4975687;28;20729;-68
2023/03/12 00:41:26;;;;;;;3.20;2.90;;;;;;;4.49;63.22;94236.13;4977226;28;20315;-67
2023/03/12 00:43:53;;;;;;;3.22;3.03;;;;;;;4.43;63.00;94228.75;4974654;28;20295;-67
2023/03/12 00:46:20;;;;;;;3.85;3.55;;;;;;;4.36;63.47;94219.69;4974932;28;20304;-67
2023/03/12 00:48:48;;;;;;;4.85;3.28;;;;;;;4.40;63.07;94226.31;4977855;28;20304;-67
2023/03/12 00:51:15;;;;;;;4.35;3.30;;;;;;;4.37;63.27;94223.84;4975461;28;20427;-68
2023/03/12 00:53:42;;;;;;;4.28;3.42;;;;;;;4.33;64.20;94219.75;4976358;28;20252;-67
2023/03/12 00:56:08;;;;;;;3.28;2.97;;;;;;;4.30;63.92;94228.19;4975814;28;20295;-67
2023/03/12 00:58:35;;;;;;;4.07;3.78;;;;;;;4.24;63.72;94227.50;4976357;28;20288;-68
2023/03/12 01:01:02;;;;;;;4.65;3.50;;;;;;;4.21;63.02;94218.31;4973512;28;20862;-66
2023/03/12 01:03:28;;;;;;;8.85;3.67;;;;;;;4.21;63.45;94218.31;4977948;28;20371;-68
2023/03/12 01:05:56;;;;;;;4.60;3.58;;;;;;;4.22;63.42;94219.16;4977426;28;20208;-67
2023/03/12 01:08:24;;;;;;;3.72;3.42;;;;;;;4.22;63.56;94226.69;4977795;28;20295;-68
2023/03/12 01:10:51;;;;;;;3.50;3.30;;;;;;;4.18;63.67;94237.72;4977781;28;20299;-67
2023/03/12 01:13:18;;;;;;;3.53;3.33;;;;;;;4.14;63.69;94233.59;4980038;28;20288;-67
2023/03/12 01:15:44;;;;;;;3.40;3.20;;;;;;;4.22;63.23;94239.28;4977790;28;20284;-66
2023/03/12 01:18:11;;;;;;;3.08;2.88;;;;;;;4.15;62.93;94250.34;4979752;28;20292;-67
2023/03/12 01:20:39;;;;;;;3.10;2.80;;;;;;;4.14;62.23;94256.22;4977390;28;20240;-67
2023/03/12 01:23:08;;;;;;;3.55;3.25;;;;;;;4.15;62.83;94262.91;4978375;28;20260;-66
2023/03/12 01:25:34;;;;;;;2.95;2.85;;;;;;;4.16;63.11;94250.31;4975185;28;20734;-67
2023/03/12 01:28:01;;;;;;;3.10;2.92;;;;;;;4.17;63.54;94256.19;4977334;28;20249;-68
2023/03/12 01:30:28;;;;;;;3.75;3.55;;;;;;;4.18;63.30;94257.81;4977964;28;20215;-68
2023/03/12 01:32:55;;;;;;;4.03;3.72;;;;;;;4.09;62.68;94259.66;4979050;28;20279;-67
2023/03/12 01:35:22;;;;;;;8.70;3.58;;;;;;;4.04;63.26;94253.91;4978537;28;20300;-67
2023/03/12 01:37:48;;;;;;;6.35;2.90;;;;;;;4.02;63.21;94247.25;4977474;28;20348;-67
2023/03/12 01:40:18;;;;;;;3.80;3.58;;;;;;;4.04;63.37;94250.56;4979374;28;20750;-68
2023/03/12 01:42:52;;;;;;;3.47;2.78;;;;;;;4.13;62.94;94257.09;4977358;28;20352;-67
2023/03/12 01:45:56;;;;;;;6.85;3.45;;;;;;;4.16;62.89;94250.31;4978353;28;20796;-66
2023/03/12 01:48:23;;;;;;;3.67;3.38;;;;;;;4.01;63.03;94248.94;4977305;28;20764;-68
2023/03/12 01:50:50;;;;;;;3.95;3.53;;;;;;;3.99;63.63;94248.16;4969641;28;20316;-67
2023/03/12 01:53:17;;;;;;;4.15;3.85;;;;;;;3.88;64.07;94245.06;4977970;28;20347;-66
2023/03/12 01:55:45;;;;;;;3.72;3.33;;;;;;;3.88;64.60;94252.59;4978276;28;20701;-68
2023/03/12 01:58:12;;;;;;;3.83;3.53;;;;;;;3.89;64.47;94254.25;4976856;28;20359;-68
2023/03/12 02:00:38;;;;;;;5.72;4.20;;;;;;;3.94;64.66;94249.97;4976427;28;20783;-68
2023/03/12 02:03:08;;;;;;;3.55;3.33;;;;;;;3.81;64.51;94258.59;4979178;28;20264;-68
2023/03/12 02:05:44;;;;;;;3.10;3.00;;;;;;;3.82;64.53;94265.28;4978488;28;20291;-68
2023/03/12 02:08:12;;;;;;;8.52;3.20;;;;;;;3.91;63.99;94262.59;4979435;28;20682;-67
2023/03/12 02:10:39;;;;;;;5.43;3.85;;;;;;;3.96;64.03;94259.97;4978928;28;20697;-68
2023/03/12 02:13:07;;;;;;;5.38;3.30;;;;;;;4.03;63.82;94264.00;4979192;28;20232;-68
2023/03/12 02:15:35;;;;;;;3.45;3.25;;;;;;;4.01;63.64;94270.75;4974659;28;20266;-68
2023/03/12 02:18:02;;;;;;;3.22;2.70;;;;;;;3.96;63.36;94263.28;4975445;28;20403;-68
2023/03/12 02:20:36;;;;;;;3.90;3.60;;;;;;;4.05;63.43;94275.69;4975993;28;20704;-68
2023/03/12 02:23:07;;;;;;;3.50;3.20;;;;;;;3.93;63.36;94275.94;4978309;28;20235;-68
2023/03/12 02:25:39;;;;;;;3.83;3.53;;;;;;;3.98;64.18;94274.16;4976746;28;20718;-68
2023/03/12 02:28:09;;;;;;;3.72;3.42;;;;;;;4.10;62.95;94271.38;4978222;28;20690;-68
2023/03/12 02:30:36;;;;;;;3.38;3.17;;;;;;;4.10;63.55;94276.41;4979458;28;20700;-69
2023/03/12 02:33:07;;;;;;;3.88;3.58;;;;;;;4.07;63.46;94270.63;4978398;28;20347;-68
2023/03/12 02:35:34;;;;;;;4.53;2.90;;;;;;;4.02;63.33;94273.22;4978025;28;20237;-68
2023/03/12 02:38:01;;;;;;;3.33;3.13;;;;;;;3.95;63.84;94293.50;4975641;28;20423;-68
2023/03/12 02:40:33;;;;;;;3.00;2.80;;;;;;;3.88;64.15;94290.28;4976490;28;20287;-68
2023/03/12 02:43:03;;;;;;;5.78;3.42;;;;;;;3.77;64.51;94287.16;4976289;28;20260;-68
2023/03/12 02:45:30;;;;;;;3.92;3.20;;;;;;;3.82;64.01;94290.41;4976800;28;20278;-67
2023/03/12 02:47:56;;;;;;;3.65;3.28;;;;;;;3.91;64.03;94300.28;4976123;28;20393;-67
2023/03/12 02:50:23;;;;;;;3.10;2.92;;;;;;;3.79;64.36;94307.22;4975157;28;20292;-68
2023/03/12 02:52:50;;;;;;;3.20;3.00;;;;;;;3.67;65.24;94305.78;4975974;28;20331;-68
2023/03/12 02:55:17;;;;;;;3.20;3.00;;;;;;;3.70;65.49;94315.78;4975918;28;20609;-68
2023/03/12 02:57:43;;;;;;;3.85;2.90;;;;;;;3.78;65.52;94313.09;4975088;28;20233;-68
2023/03/12 03:00:14;;;;;;;2.67;2.47;;;;;;;3.85;65.45;94312.97;4976520;28;20225;-68
2023/03/12 03:02:41;;;;;;;3.38;3.17;;;;;;;3.86;64.65;94312.09;4975989;28;20227;-68
2023/03/12 03:05:09;;;;;;;2.67;2.58;;;;;;;3.79;65.31;94303.03;4976352;28;20263;-68
2023/03/12 03:07:36;;;;;;;3.00;2.80;;;;;;;3.78;65.44;94301.38;4974605;28;20221;-68
2023/03/12 03:10:03;;;;;;;3.40;3.20;;;;;;;3.67;65.03;94305.78;4977778;28;20229;-68
2023/03/12 03:12:30;;;;;;;3.85;3.45;;;;;;;3.59;65.55;94313.47;4978524;28;20212;-68
2023/03/12 03:14:57;;;;;;;5.95;3.72;;;;;;;3.56;66.14;94307.66;4976851;28;20387;-68
2023/03/12 03:17:26;;;;;;;6.60;3.30;;;;;;;3.55;66.46;94295.97;4976332;28;20765;-69
2023/03/12 03:19:53;;;;;;;3.20;3.00;;;;;;;3.58;66.32;94299.25;4976437;28;20781;-68
2023/03/12 03:22:22;;;;;;;4.95;3.47;;;;;;;3.62;66.51;94298.34;4976326;28;20657;-67
2023/03/12 03:24:49;;;;;;;3.55;3.25;;;;;;;3.71;66.00;94302.38;4976857;28;20268;-68
2023/03/12 03:27:15;;;;;;;3.75;3.40;;;;;;;3.71;66.54;94307.41;4975872;28;20268;-68
2023/03/12 03:29:42;;;;;;;2.60;2.40;;;;;;;3.68;66.08;94292.38;4977980;28;20304;-69
2023/03/12 03:32:09;;;;;;;3.95;3.67;;;;;;;3.60;66.48;94305.06;4978129;28;20730;-68
2023/03/12 03:34:37;;;;;;;3.58;3.38;;;;;;;3.55;67.11;94316.06;4974850;28;20291;-69
2023/03/12 03:37:04;;;;;;;5.57;3.45;;;;;;;3.58;66.33;94321.84;4974913;28;20217;-68
2023/03/12 03:39:31;;;;;;;3.03;2.85;;;;;;;3.44;67.29;94325.50;4974422;28;20263;-68
2023/03/12 03:41:58;;;;;;;5.93;2.95;;;;;;;3.59;66.39;94325.19;4974880;28;20201;-68
2023/03/12 03:44:25;;;;;;;4.47;3.00;;;;;;;3.50;66.40;94330.38;4974577;28;20730;-68
2023/03/12 03:46:52;;;;;;;3.42;3.22;;;;;;;3.56;66.41;94327.75;4975026;28;20323;-68
2023/03/12 03:49:19;;;;;;;3.20;3.00;;;;;;;3.51;66.65;94324.50;4977329;28;20212;-67
2023/03/12 03:51:47;;;;;;;3.47;3.20;;;;;;;3.47;66.66;94325.41;4976314;28;20204;-67
2023/03/12 03:54:14;;;;;;;3.00;2.90;;;;;;;3.37;66.77;94324.75;4975374;28;20291;-67
2023/03/12 03:56:41;;;;;;;3.50;3.20;;;;;;;3.33;66.46;94329.00;4975802;28;20366;-67
2023/03/12 03:59:08;;;;;;;5.40;2.72;;;;;;;3.34;65.17;94343.22;4974309;28;21227;-67
2023/03/12 04:01:35;;;;;;;3.40;2.60;;;;;;;3.41;64.94;94347.28;4975650;28;20240;-68
2023/03/12 04:04:02;;;;;;;2.90;2.70;;;;;;;3.34;65.46;94349.94;4976887;28;20323;-67
2023/03/12 04:06:29;;;;;;;3.08;2.70;;;;;;;3.24;65.44;94356.78;4974892;28;20224;-68
2023/03/12 04:08:58;;;;;;;3.95;2.90;;;;;;;3.27;64.32;94359.25;4973231;28;20291;-67
2023/03/12 04:11:26;;;;;;;5.57;2.00;;;;;;;3.28;64.85;94353.38;4974794;28;20328;-67
2023/03/12 04:13:52;;;;;;;2.33;2.20;;;;;;;3.30;64.19;94354.16;4975130;28;20283;-67
2023/03/12 04:16:19;;;;;;;3.00;2.72;;;;;;;3.24;64.79;94359.28;4976937;28;20209;-68
2023/03/12 04:18:46;;;;;;;2.92;2.72;;;;;;;3.31;64.66;94363.34;4974927;28;20300;-70
2023/03/12 04:21:13;;;;;;;3.67;2.90;;;;;;;3.37;63.63;94364.94;4975840;28;20233;-68
2023/03/12 04:23:40;;;;;;;2.83;2.67;;;;;;;3.26;63.50;94365.13;4976428;28;20319;-68
2023/03/12 04:26:08;;;;;;;4.25;2.60;;;;;;;3.28;63.38;94383.50;4976251;28;20315;-68
2023/03/12 04:28:36;;;;;;;5.35;2.45;;;;;;;3.15;63.06;94384.56;4973710;28;20334;-66
2023/03/12 04:31:05;;;;;;;2.22;2.13;;;;;;;3.10;63.25;94393.00;4974253;28;20296;-68
2023/03/12 04:33:34;;;;;;;2.90;2.60;;;;;;;3.05;63.65;94393.91;4973308;28;20299;-68
2023/03/12 04:36:01;;;;;;;2.65;2.45;;;;;;;3.22;61.59;94392.81;4974793;28;20300;-68
2023/03/12 04:38:30;;;;;;;3.40;3.15;;;;;;;3.15;61.89;94392.09;4973817;28;20407;-67
2023/03/12 04:41:00;;;;;;;3.08;2.88;;;;;;;3.23;61.89;94395.28;4977805;28;20235;-68
2023/03/12 04:43:28;;;;;;;2.97;2.75;;;;;;;3.31;60.74;94393.50;4974822;28;20347;-67
2023/03/12 04:45:56;;;;;;;2.22;2.03;;;;;;;3.20;59.82;94400.38;4973824;28;20304;-68
2023/03/12 04:48:23;;;;;;;2.00;1.90;;;;;;;3.17;59.93;94400.44;4975758;28;20292;-69
2023/03/12 04:50:50;;;;;;;2.58;2.40;;;;;;;3.20;60.51;94410.44;4976156;28;20291;-68
2023/03/12 04:53:17;;;;;;;1.73;1.63;;;;;;;3.12;59.74;94412.22;4977775;28;20769;-67
2023/03/12 04:55:44;;;;;;;2.08;1.98;;;;;;;3.15;59.87;94417.19;4975353;28;20665;-67
2023/03/12 04:58:10;;;;;;;2.53;2.33;;;;;;;3.22;59.27;94421.25;4973839;28;20288;-67
2023/03/12 05:00:39;;;;;;;2.80;1.50;;;;;;;3.19;60.23;94425.50;4974956;28;20295;-67
2023/03/12 05:03:05;;;;;;;2.03;1.80;;;;;;;3.19;60.18;94428.84;4975961;28;20408;-68
2023/03/12 05:05:32;;;;;;;2.25;2.05;;;;;;;3.10;60.22;94434.00;4975644;28;20329;-69
2023/03/12 05:07:59;;;;;;;2.85;1.92;;;;;;;3.28;59.66;94442.94;4973350;28;20304;-66
2023/03/12 05:10:25;;;;;;;2.22;2.13;;;;;;;3.37;59.89;94448.66;4974547;28;20305;-67
2023/03/12 05:12:52;;;;;;;3.08;2.13;;;;;;;3.40;59.57;94448.59;4975049;28;20300;-68
2023/03/12 05:15:19;;;;;;;4.45;1.80;;;;;;;3.50;59.83;94448.44;4976490;28;20331;-68
2023/03/12 05:17:47;;;;;;;3.20;1.80;;;;;;;3.50;59.64;94453.47;4975075;28;20356;-68
2023/03/12 05:20:14;;;;;;;7.22;2.60;;;;;;;3.72;60.10;94449.72;4974292;28;20244;-68
2023/03/12 05:22:40;;;;;;;1.90;1.80;;;;;;;4.20;59.12;94452.25;4974425;28;20283;-67
2023/03/12 05:25:08;;;;;;;4.78;2.28;;;;;;;4.73;57.26;94454.50;4975417;28;20293;-68
2023/03/12 05:27:35;;;;;;;5.55;2.22;;;;;;;5.58;54.92;94458.50;4975470;28;20705;-69
2023/03/12 05:30:03;;;;;;;2.63;2.53;;;;;;;6.43;52.66;94463.91;4974975;28;20305;-67
2023/03/12 05:32:29;;;;;;;2.33;2.13;;;;;;;6.88;50.68;94460.97;4972938;28;20211;-69
2023/03/12 05:34:57;;;;;;;2.45;2.25;;;;;;;7.33;49.90;94469.69;4974665;28;20303;-68
2023/03/12 05:37:24;;;;;;;2.40;2.20;;;;;;;8.00;47.73;94472.63;4977028;28;20757;-69
2023/03/12 05:39:51;;;;;;;2.03;1.83;;;;;;;8.86;46.01;94463.75;4976179;28;20233;-69
2023/03/12 05:42:17;;;;;;;2.15;1.90;;;;;;;10.43;42.96;94464.31;4976252;28;20300;-68
2023/03/12 05:44:44;;;;;;;2.05;1.92;;;;;;;11.55;39.55;94464.34;4975381;28;21013;-68
2023/03/12 05:47:11;;;;;;;2.40;2.20;;;;;;;12.70;37.33;94457.00;4975410;28;20701;-68
2023/03/12 05:49:37;;;;;;;1.98;1.88;;;;;;;13.56;34.87;94461.81;4976558;28;20348;-68
2023/03/12 05:52:06;;;;;;;2.00;1.90;;;;;;;14.93;33.19;94463.31;4978313;28;20268;-68
2023/03/12 05:54:33;;;;;;;1.92;1.70;;;;;;;16.73;30.34;94451.91;4975890;28;20359;-68
2023/03/12 05:56:59;;;;;;;2.90;2.08;;;;;;;18.63;27.80;94453.78;4976989;28;20705;-68
2023/03/12 05:59:26;;;;;;;4.88;2.40;;;;;;;19.95;25.65;94463.34;4979408;28;20686;-68
2023/03/12 06:01:53;;;;;;;4.68;1.95;;;;;;;19.35;25.08;94459.44;4977144;28;20359;-70
2023/03/12 06:04:20;;;;;;;2.38;1.70;;;;;;;19.37;25.05;94463.53;4976780;28;20335;-69
2023/03/12 06:06:47;;;;;;;2.03;1.92;;;;;;;19.26;24.67;94479.00;4979547;28;20292;-68
2023/03/12 06:09:15;;;;;;;3.15;2.95;;;;;;;18.86;25.31;94476.06;4977536;28;20300;-68
2023/03/12 06:11:41;;;;;;;2.45;2.10;;;;;;;18.98;24.78;94477.72;4976774;28;20359;-68
2023/03/12 06:14:08;;;;;;;1.85;1.70;;;;;;;18.71;24.56;94473.81;4976405;28;20323;-69
2023/03/12 06:16:35;;;;;;;1.70;1.60;;;;;;;17.72;25.20;94491.28;4978896;28;20380;-68
2023/03/12 06:19:03;;;;;;;2.08;1.98;;;;;;;17.25;26.48;94479.97;4979821;28;20244;-69
2023/03/12 06:21:32;;;;;;;3.35;2.42;;;;;;;16.89;26.75;94489.25;4980512;28;20294;-68
2023/03/12 06:23:59;;;;;;;1.63;1.60;;;;;;;16.29;27.81;94479.53;4977966;28;20319;-68
2023/03/12 06:26:27;;;;;;;2.03;1.80;;;;;;;15.65;28.37;94493.88;4978456;28;20260;-68
2023/03/12 06:28:54;;;;;;;1.67;1.58;;;;;;;15.54;28.63;94503.94;4978236;28;20264;-70
2023/03/12 06:31:21;;;;;;;1.73;1.63;;;;;;;15.69;27.83;94514.19;4977860;28;20677;-68
2023/03/12 06:33:48;;;;;;;1.67;1.48;;;;;;;15.12;29.16;94515.03;4977218;28;20300;-70
2023/03/12 06:36:15;;;;;;;1.80;1.70;;;;;;;14.70;29.48;94526.06;4976220;28;20380;-69
2023/03/12 06:38:42;;;;;;;3.25;2.97;;;;;;;14.80;29.05;94539.97;4977301;28;20237;-69
2023/03/12 06:41:11;;;;;;;2.65;2.45;;;;;;;15.67;28.02;94528.81;4976636;28;20268;-69
2023/03/12 06:43:40;;;;;;;3.13;1.90;;;;;;;16.99;26.85;94535.66;4978106;28;20729;-70
2023/03/12 06:46:08;;;;;;;2.55;2.35;;;;;;;17.56;25.70;94525.75;4978015;28;20287;-69
2023/03/12 06:48:36;;;;;;;3.85;3.60;;;;;;;18.28;24.62;94533.53;4976813;28;20236;-69
2023/03/12 06:51:03;;;;;;;2.20;2.03;;;;;;;18.74;23.40;94543.09;4974024;28;20209;-69
2023/03/12 06:53:30;;;;;;;2.38;1.80;;;;;;;19.18;23.67;94550.06;4977978;28;20196;-69
2023/03/12 06:55:56;;;;;;;1.90;1.80;;;;;;;19.96;22.66;94553.47;4977626;28;20678;-69
2023/03/12 06:58:23;;;;;;;1.88;1.77;;;;;;;21.12;21.61;94553.59;4977454;28;20292;-69
2023/03/12 07:00:52;;;;;;;2.92;1.92;;;;;;;21.43;21.14;94557.91;4976123;28;20242;-70
2023/03/12 07:03:19;;;;;;;1.80;1.70;;;;;;;21.04;20.45;94552.47;4976391;28;20320;-69
2023/03/12 07:05:47;;;;;;;1.85;1.75;;;;;;;20.03;21.96;94564.13;4975183;28;20319;-69
2023/03/12 07:08:14;;;;;;;1.90;1.80;;;;;;;20.18;21.79;94557.75;4980031;28;20293;-69
2023/03/12 07:10:41;;;;;;;1.98;1.70;;;;;;;20.21;21.28;94562.69;4977169;28;20317;-70
2023/03/12 07:13:08;;;;;;;2.22;2.13;;;;;;;20.37;22.04;94562.31;4977718;28;20237;-70
2023/03/12 07:15:35;;;;;;;6.80;3.75;;;;;;;20.96;21.43;94565.22;4975441;28;20762;-69
2023/03/12 07:18:04;;;;;;;2.00;1.90;;;;;;;21.83;20.79;94567.44;4978320;28;20316;-70
2023/03/12 07:20:31;;;;;;;2.50;2.40;;;;;;;21.67;21.01;94575.69;4976817;28;20263;-71
2023/03/12 07:22:59;;;;;;;2.50;2.30;;;;;;;20.49;21.15;94581.16;4977182;28;20295;-70
2023/03/12 07:25:26;;;;;;;2.70;2.50;;;;;;;19.44;22.33;94587.56;4975507;28;20367;-70
2023/03/12 07:27:53;;;;;;;2.65;2.40;;;;;;;19.69;22.76;94584.81;4976341;28;20742;-69
2023/03/12 07:30:19;;;;;;;2.60;2.47;;;;;;;20.67;21.97;94579.69;4975784;28;21178;-69
2023/03/12 07:32:46;;;;;;;2.30;2.20;;;;;;;22.21;20.68;94593.47;4977850;28;21501;-69
2023/03/12 07:35:14;;;;;;;2.00;1.90;;;;;;;22.76;19.50;94593.81;4975591;28;20233;-70
2023/03/12 07:37:41;;;;;;;1.67;1.60;;;;;;;23.12;19.55;94588.88;4979485;28;20233;-69
2023/03/12 07:40:09;;;;;;;3.67;2.20;;;;;;;24.62;18.12;94584.34;4977331;28;20304;-70
2023/03/12 07:42:36;;;;;;;1.90;1.80;;;;;;;25.48;16.95;94567.16;4978910;28;20213;-70
2023/03/12 07:45:03;;;;;;;1.88;1.80;;;;;;;25.26;18.06;94593.66;4978757;28;20347;-70
2023/03/12 07:47:29;;;;;;;1.98;1.50;;;;;;;25.27;17.42;94595.28;4977511;28;20263;-70
2023/03/12 07:49:56;;;;;;;3.00;2.67;;;;;;;25.23;17.44;94604.41;4977229;28;20299;-71
2023/03/12 07:52:24;;;;;;;2.50;2.40;;;;;;;24.30;18.59;94603.81;4974941;28;20391;-70
2023/03/12 07:54:53;;;;;;;2.55;2.10;;;;;;;23.89;18.13;94596.47;4976430;28;20227;-70
2023/03/12 07:57:20;;;;;;;2.00;1.90;;;;;;;24.01;18.86;94606.53;4977454;28;20461;-71
2023/03/12 07:59:46;;;;;;;2.10;2.00;;;;;;;24.11;18.55;94606.47;4977257;28;20677;-69
2023/03/12 08:02:14;;;;;;;2.33;2.13;;;;;;;23.88;18.46;94598.25;4978452;28;20704;-72
2023/03/12 08:04:40;;;;;;;1.92;1.83;;;;;;;23.50;18.72;94601.78;4976246;28;20224;-70
2023/03/12 08:07:07;;;;;;;1.80;1.70;;;;;;;23.96;17.75;94602.75;4974534;28;20304;-69
2023/03/12 08:09:37;;;;;;;2.90;2.70;;;;;;;24.34;17.39;94591.34;4975992;28;20861;-70
2023/03/12 08:12:04;;;;;;;3.28;2.97;;;;;;;24.98;17.21;94596.41;4975864;28;20208;-71
2023/03/12 08:14:31;;;;;;;4.93;4.63;;;;;;;25.33;16.85;94600.72;4973977;28;20320;-69
2023/03/12 08:16:57;;;;;;;3.08;2.88;;;;;;;23.52;17.80;94610.25;4975696;28;20685;-70
2023/03/12 08:19:24;;;;;;;1.80;1.67;;;;;;;23.39;18.10;94610.53;4978267;28;20352;-70
2023/03/12 08:21:52;;;;;;;2.92;2.00;;;;;;;25.16;16.57;94604.16;4976578;28;20359;-70
2023/03/12 08:24:19;;;;;;;2.92;2.72;;;;;;;26.71;16.30;94598.78;4977226;28;20606;-70
2023/03/12 08:26:47;;;;;;;3.83;2.03;;;;;;;28.36;15.13;94589.59;4973948;28;20331;-70
2023/03/12 08:29:14;;;;;;;3.22;1.88;;;;;;;29.42;14.17;94620.34;4977253;28;20296;-70
2023/03/12 08:31:41;;;;;;;2.60;2.50;;;;;;;28.95;14.22;94626.56;4975926;28;20300;-69
2023/03/12 08:34:08;;;;;;;4.18;3.78;;;;;;;29.13;13.97;94621.03;4977131;28;20291;-71
2023/03/12 08:36:36;;;;;;;6.05;2.97;;;;;;;29.64;14.37;94602.94;4977188;28;20864;-69
2023/03/12 08:39:03;;;;;;;2.70;2.50;;;;;;;29.48;13.66;94624.84;4981884;28;20796;-69
2023/03/12 08:41:30;;;;;;;3.40;3.20;;;;;;;28.65;14.62;94617.72;4982265;28;20376;-70
2023/03/12 08:43:58;;;;;;;3.83;3.53;;;;;;;27.38;14.97;94629.97;4974831;28;20315;-69
2023/03/12 08:46:24;;;;;;;2.72;2.63;;;;;;;26.50;15.11;94621.03;4978511;28;20296;-69
2023/03/12 08:48:51;;;;;;;2.55;2.45;;;;;;;24.40;16.77;94622.75;4976601;28;21512;-69
2023/03/12 08:51:18;;;;;;;2.25;2.15;;;;;;;23.89;17.25;94623.25;4978146;28;20743;-70
2023/03/12 08:53:45;;;;;;;2.75;2.55;;;;;;;23.73;18.28;94623.03;4977909;28;20294;-69
2023/03/12 08:56:11;;;;;;;2.30;2.10;;;;;;;23.10;18.70;94640.84;4976428;28;20208;-69
2023/03/12 08:58:38;;;;;;;4.25;2.53;;;;;;;22.30;18.71;94647.00;4980427;28;20229;-69
2023/03/12 09:01:10;;;;;;;3.30;2.40;;;;;;;21.84;19.10;94639.72;4977337;28;20659;-71
2023/03/12 09:03:37;;;;;;;2.45;2.13;;;;;;;21.50;20.06;94646.94;4982293;28;20726;-70
2023/03/12 09:06:06;;;;;;;2.78;2.28;;;;;;;20.66;20.44;94650.34;4977281;28;20240;-70
2023/03/12 09:08:33;;;;;;;3.88;2.25;;;;;;;19.61;21.40;94655.91;4974510;28;21343;-69
2023/03/12 09:11:01;;;;;;;3.17;2.30;;;;;;;18.92;21.71;94647.28;4972957;28;20717;-69
2023/03/12 09:13:28;;;;;;;1.70;1.60;;;;;;;16.86;23.57;94668.28;4974375;28;20208;-69
2023/03/12 09:15:59;;;;;;;2.20;2.08;;;;;;;15.59;24.92;94663.28;4977219;28;20256;-68
2023/03/12 09:18:28;;;;;;;2.40;2.30;;;;;;;15.12;26.74;94652.41;4974072;28;20201;-69
2023/03/12 09:20:56;;;;;;;2.45;2.25;;;;;;;14.95;27.29;94659.31;4975050;28;20230;-69
2023/03/12 09:23:23;;;;;;;5.30;2.38;;;;;;;14.43;27.35;94663.16;4976379;28;20642;-69
2023/03/12 09:25:50;;;;;;;3.00;2.80;;;;;;;13.92;28.58;94657.34;4979663;28;20313;-70
2023/03/12 09:28:17;;;;;;;2.50;2.30;;;;;;;13.58;29.27;94661.69;4977607;28;20691;-70
2023/03/12 09:30:44;;;;;;;3.22;3.03;;;;;;;12.92;29.13;94669.22;4979257;28;20693;-70
2023/03/12 09:33:11;;;;;;;3.70;3.40;;;;;;;12.74;30.48;94654.81;4979232;28;20689;-70
2023/03/12 09:35:39;;;;;;;15.50;11.40;;;;;;;12.58;30.77;94659.84;4978845;28;20296;-70
2023/03/12 09:38:06;;;;;;;4.97;4.03;;;;;;;12.62;31.15;94665.59;4976825;28;20690;-71
2023/03/12 09:40:38;;;;;;;2.70;2.47;;;;;;;12.70;30.68;94663.50;4979235;28;20288;-70
2023/03/12 09:43:11;;;;;;;2.33;1.95;;;;;;;12.35;30.34;94669.47;4977205;28;20681;-70
2023/03/12 09:45:42;;;;;;;2.60;2.40;;;;;;;12.11;31.73;94669.69;4977888;28;20314;-64
2023/03/12 09:48:16;;;;;;;2.28;2.08;;;;;;;12.17;32.00;94674.50;4977039;28;20991;-62
2023/03/12 09:50:47;;;;;;;4.18;1.90;;;;;;;12.31;32.12;94661.13;4977912;28;20298;-62
2023/03/12 09:53:22;;;;;;;2.55;2.08;;;;;;;12.35;32.03;94656.72;4976323;28;20637;-64
2023/03/12 09:55:52;;;;;;;4.18;3.70;;;;;;;12.37;31.76;94655.75;4978711;28;20219;-65
2023/03/12 09:58:25;;;;;;;2.85;2.65;;;;;;;12.20;31.35;94651.44;4977818;28;20384;-65
2023/03/12 10:00:55;;;;;;;2.70;2.50;;;;;;;12.06;31.34;94660.63;4975823;28;21167;-69
2023/03/12 10:03:42;;;;;;;3.53;2.30;;;;;;;11.78;32.31;94663.56;4980539;28;20228;-70
2023/03/12 10:06:14;;;;;;;2.50;2.33;;;;;;;11.64;33.09;94658.22;4979903;28;20234;-71
2023/03/12 10:08:56;;;;;;;3.00;1.95;;;;;;;11.33;33.20;94656.19;4974903;28;20292;-70
2023/03/12 10:11:37;;;;;;;2.28;2.17;;;;;;;11.29;32.60;94655.50;4979199;28;20695;-70
2023/03/12 10:14:17;;;;;;;2.75;2.22;;;;;;;11.25;33.81;94661.59;4977073;28;20758;-70
2023/03/12 10:16:54;;;;;;;1.65;1.55;;;;;;;11.33;32.74;94649.41;4976584;28;20210;-71
2023/03/12 10:19:40;;;;;;;2.22;2.08;;;;;;;11.50;33.79;94646.94;4978025;28;20294;-70
2023/03/12 10:22:21;;;;;;;2.65;2.45;;;;;;;11.43;33.27;94627.75;4978823;28;20201;-71
2023/03/12 10:25:00;;;;;;;3.55;2.72;;;;;;;11.26;33.70;94642.91;4977182;28;20715;-71
2023/03/12 10:27:30;;;;;;;1.92;1.83;;;;;;;11.20;34.25;94648.25;4975951;28;20304;-70
2023/03/12 10:29:58;;;;;;;2.30;2.10;;;;;;;11.23;34.68;94643.03;4978238;28;20216;-72
2023/03/12 10:32:33;;;;;;;2.47;2.28;;;;;;;11.17;34.64;94651.75;4979035;28;20213;-70
2023/03/12 10:35:03;;;;;;;2.08;1.98;;;;;;;11.01;33.95;94652.47;4977339;28;20228;-70
2023/03/12 10:37:37;;;;;;;1.60;1.50;;;;;;;10.98;34.42;94657.69;4979505;28;20548;-70
2023/03/12 10:40:05;;;;;;;2.60;1.90;;;;;;;10.93;34.32;94651.94;4977245;28;20300;-70
2023/03/12 10:42:32;;;;;;;2.42;2.03;;;;;;;11.07;34.62;94636.97;4979174;28;20299;-70
2023/03/12 10:45:15;;;;;;;2.03;1.92;;;;;;;11.48;33.47;94658.91;4978000;28;20435;-70
2023/03/12 10:47:42;;;;;;;2.00;1.90;;;;;;;11.72;33.74;94651.06;4979614;28;20291;-70
2023/03/12 10:50:16;;;;;;;2.00;1.90;;;;;;;11.98;33.70;94653.31;4979409;28;20212;-69
2023/03/12 10:52:46;;;;;;;1.83;1.73;;;;;;;12.48;33.18;94652.69;4977603;28;20353;-71
2023/03/12 10:55:21;;;;;;;2.10;2.00;;;;;;;12.89;32.35;94664.25;4977545;28;20897;-70
2023/03/12 10:57:48;;;;;;;1.85;1.75;;;;;;;12.80;31.70;94648.59;4976691;28;20266;-70
2023/03/12 11:00:19;;;;;;;1.63;1.55;;;;;;;12.74;32.46;94649.72;4978280;28;20236;-69
2023/03/12 11:02:55;;;;;;;1.60;1.50;;;;;;;12.82;32.77;94647.63;4974869;28;20236;-70
2023/03/12 11:05:25;;;;;;;1.90;1.40;;;;;;;12.80;31.33;94649.44;4975960;28;20366;-70
2023/03/12 11:07:53;;;;;;;2.33;2.00;;;;;;;12.42;30.94;94640.22;4978646;28;20246;-70
2023/03/12 11:10:25;;;;;;;2.22;2.03;;;;;;;11.93;31.16;94650.16;4976057;28;20645;-70
2023/03/12 11:13:02;;;;;;;1.60;1.50;;;;;;;11.64;32.48;94653.13;4977938;28;20392;-69
2023/03/12 11:15:36;;;;;;;1.55;1.45;;;;;;;11.64;33.30;94648.03;4975519;28;20320;-70
2023/03/12 11:18:31;;;;;;;3.17;1.60;;;;;;;11.75;33.18;94640.75;4974685;28;20298;-70
2023/03/12 11:21:13;;;;;;;1.80;1.52;;;;;;;11.92;30.65;94640.84;4965565;28;20704;-70
2023/03/12 11:23:43;;;;;;;1.58;1.48;;;;;;;11.81;31.10;94638.81;4979089;28;20657;-70
2023/03/12 11:26:16;;;;;;;4.47;2.22;;;;;;;11.96;30.55;94634.72;4974503;28;20354;-71
2023/03/12 11:28:47;;;;;;;1.83;1.73;;;;;;;12.12;29.74;94639.97;4976228;28;20674;-70
2023/03/12 11:31:20;;;;;;;2.58;1.88;;;;;;;12.02;30.97;94644.66;4977375;28;20382;-69
2023/03/12 11:33:47;;;;;;;1.80;1.50;;;;;;;12.08;30.47;94634.19;4978127;28;20290;-69
2023/03/12 11:36:29;;;;;;;1.60;1.50;;;;;;;12.08;31.23;94628.25;4977353;28;20279;-70
2023/03/12 11:39:03;;;;;;;2.45;1.98;;;;;;;12.14;31.75;94638.97;4978635;28;21398;-70
2023/03/12 11:41:44;;;;;;;1.40;1.40;;;;;;;12.23;31.61;94632.63;4973598;28;20779;-70
2023/03/12 11:44:27;;;;;;;2.88;1.60;;;;;;;12.36;31.23;94628.63;4976656;28;20228;-73